Time;durP1;ratioP1;P1;durP2;ratioP2;P2;SDS_P1;SDS_P2;PMS_P1;PMS_P2;Temp;Humidity;BMP_temperature;BMP_pressure;BME280_temperature;BME280_humidity;BME280_pressure;Samples;Min_cycle;Max_cycle;Signal;HPM_P1;HPM_P2
2022/06/19 00:00:39;;;;;;;4.27;2.93;;;23.70;99.90;;;;;;5105204;28;20469;-82
2022/06/19 00:03:10;;;;;;;5.63;3.43;;;23.70;99.90;;;;;;5109660;28;20434;-82
2022/06/19 00:05:37;;;;;;;5.40;3.73;;;23.60;99.90;;;;;;5097504;28;20472;-84
2022/06/19 00:08:05;;;;;;;5.33;3.83;;;23.60;99.90;;;;;;5097350;28;20490;-83
2022/06/19 00:10:33;;;;;;;5.00;3.50;;;23.60;99.90;;;;;;5096757;28;20474;-83
2022/06/19 00:13:00;;;;;;;4.10;3.27;;;23.60;99.90;;;;;;5091696;28;20496;-84
2022/06/19 00:15:27;;;;;;;4.63;3.10;;;23.50;99.90;;;;;;5084841;28;20494;-82
2022/06/19 00:17:54;;;;;;;9.43;3.40;;;23.50;99.90;;;;;;5076160;28;20551;-83
2022/06/19 00:20:20;;;;;;;8.67;3.60;;;23.40;99.90;;;;;;5076869;28;20483;-82
2022/06/19 00:22:47;;;;;;;8.50;3.43;;;23.40;99.90;;;;;;5081828;28;20949;-81
2022/06/19 00:25:14;;;;;;;7.00;3.67;;;23.30;99.90;;;;;;5084919;28;20550;-83
2022/06/19 00:27:43;;;;;;;4.40;3.20;;;23.30;99.90;;;;;;5075745;28;21038;-83
2022/06/19 00:30:12;;;;;;;5.07;3.37;;;23.30;99.90;;;;;;5076290;28;20538;-82
2022/06/19 00:32:39;;;;;;;5.30;3.20;;;23.30;99.90;;;;;;5075927;28;20490;-82
2022/06/19 00:35:07;;;;;;;4.93;3.20;;;23.20;99.90;;;;;;5089401;28;20458;-80
2022/06/19 00:37:34;;;;;;;5.93;3.10;;;23.20;99.90;;;;;;5101233;28;20494;-83
2022/06/19 00:40:01;;;;;;;4.07;3.30;;;23.10;99.90;;;;;;5091716;28;20811;-82
2022/06/19 00:42:29;;;;;;;4.37;3.07;;;23.00;99.90;;;;;;5080323;28;20477;-81
2022/06/19 00:44:57;;;;;;;4.50;2.90;;;23.00;99.90;;;;;;5097160;28;20877;-83
2022/06/19 00:47:26;;;;;;;5.47;3.10;;;23.00;99.90;;;;;;5096945;28;20474;-82
2022/06/19 00:49:57;;;;;;;4.77;2.87;;;22.90;99.90;;;;;;5076210;28;20536;-84
2022/06/19 00:52:27;;;;;;;4.83;2.57;;;22.80;99.90;;;;;;5077026;28;20526;-83
2022/06/19 00:54:58;;;;;;;11.33;3.17;;;22.70;99.90;;;;;;5076188;28;20453;-83
2022/06/19 00:57:26;;;;;;;6.93;2.60;;;22.70;99.90;;;;;;5076160;28;20484;-83
2022/06/19 01:00:00;;;;;;;4.20;2.57;;;22.60;99.90;;;;;;5075895;28;20485;-84
2022/06/19 01:02:28;;;;;;;5.60;3.23;;;22.60;99.90;;;;;;5076729;28;20471;-81
2022/06/19 01:04:56;;;;;;;6.50;3.03;;;22.60;99.90;;;;;;5076641;28;20470;-84
2022/06/19 01:07:26;;;;;;;4.43;2.53;;;22.60;99.90;;;;;;5076296;28;20495;-83
2022/06/19 01:09:53;;;;;;;4.93;3.10;;;22.50;99.90;;;;;;5076004;28;20481;-85
2022/06/19 01:12:22;;;;;;;4.53;2.57;;;22.50;99.90;;;;;;5076599;28;20497;-85
2022/06/19 01:14:52;;;;;;;3.90;2.60;;;22.40;99.90;;;;;;5076334;28;20471;-82
2022/06/19 01:17:20;;;;;;;4.50;2.90;;;22.30;99.90;;;;;;5076000;28;20499;-82
2022/06/19 01:19:47;;;;;;;4.37;2.30;;;22.30;99.90;;;;;;5075955;28;20475;-83
2022/06/19 01:22:25;;;;;;;3.83;2.37;;;22.20;99.90;;;;;;5074490;28;20482;-82
2022/06/19 01:25:05;;;;;;;4.00;2.77;;;22.20;99.90;;;;;;5076014;28;20969;-82
2022/06/19 01:30:21;;;;;;;3.57;2.30;;;22.20;99.90;;;;;;5080035;28;20402;-83
2022/06/19 01:32:51;;;;;;;3.70;2.37;;;22.10;99.90;;;;;;5079129;28;20453;-82
2022/06/19 01:35:21;;;;;;;4.17;2.30;;;22.10;99.90;;;;;;5080390;28;21002;-82
2022/06/19 01:37:50;;;;;;;3.87;2.07;;;22.00;99.90;;;;;;5080067;28;20541;-82
2022/06/19 01:40:21;;;;;;;4.03;2.13;;;21.90;99.90;;;;;;5080824;28;20449;-84
2022/06/19 01:42:48;;;;;;;3.40;1.90;;;21.90;99.90;;;;;;5080050;28;20442;-83
2022/06/19 01:45:17;;;;;;;4.57;2.40;;;21.90;99.90;;;;;;5080295;28;20474;-82
2022/06/19 01:47:44;;;;;;;5.97;2.73;;;21.90;99.90;;;;;;5080872;28;20501;-82
2022/06/19 01:50:16;;;;;;;5.63;2.37;;;21.80;99.90;;;;;;5079994;28;20506;-82
2022/06/19 01:52:43;;;;;;;4.60;2.80;;;21.80;99.90;;;;;;5081048;28;20481;-83
2022/06/19 01:55:13;;;;;;;4.93;2.80;;;21.80;99.90;;;;;;5080861;28;20478;-81
2022/06/19 01:57:45;;;;;;;5.60;2.30;;;21.70;99.90;;;;;;5081696;28;21065;-82
2022/06/19 02:00:15;;;;;;;3.27;1.97;;;21.70;99.90;;;;;;5081447;28;20495;-82
2022/06/19 02:02:45;;;;;;;5.10;2.17;;;21.70;99.90;;;;;;5081051;28;20427;-81
2022/06/19 02:05:12;;;;;;;3.57;2.40;;;21.70;99.90;;;;;;5091392;28;20450;-81
2022/06/19 02:07:39;;;;;;;6.83;2.90;;;21.60;99.90;;;;;;5095013;28;20462;-83
2022/06/19 02:10:08;;;;;;;3.30;2.47;;;21.60;99.90;;;;;;5095313;28;20486;-83
2022/06/19 02:12:36;;;;;;;4.20;2.27;;;21.60;99.90;;;;;;5095085;28;20439;-82
2022/06/19 02:15:09;;;;;;;5.47;2.47;;;21.60;99.90;;;;;;5087777;28;20799;-83
2022/06/19 02:17:39;;;;;;;4.17;2.30;;;21.50;99.90;;;;;;5082595;28;21022;-83
2022/06/19 02:20:07;;;;;;;4.00;2.60;;;21.50;99.90;;;;;;5088221;28;20454;-83
2022/06/19 02:22:34;;;;;;;5.50;2.37;;;21.50;99.90;;;;;;5082340;28;20443;-83
2022/06/19 02:25:02;;;;;;;3.30;2.37;;;21.40;99.90;;;;;;5081436;28;20447;-84
2022/06/19 02:27:30;;;;;;;5.77;2.60;;;21.40;99.90;;;;;;5077311;28;20498;-82
2022/06/19 02:29:57;;;;;;;3.77;2.67;;;21.40;99.90;;;;;;5077209;28;20482;-81
2022/06/19 02:32:32;;;;;;;5.00;2.40;;;21.30;99.90;;;;;;5076435;28;20515;-82
2022/06/19 02:34:59;;;;;;;4.27;2.07;;;21.30;99.90;;;;;;5076539;28;20529;-80
2022/06/19 02:37:31;;;;;;;4.77;2.40;;;21.30;99.90;;;;;;5076329;28;20502;-81
2022/06/19 02:40:05;;;;;;;4.80;2.10;;;21.10;99.90;;;;;;5075974;28;20872;-82
2022/06/19 02:42:36;;;;;;;4.77;2.33;;;21.10;99.90;;;;;;5076732;28;20463;-80
2022/06/19 02:45:07;;;;;;;4.70;2.20;;;21.10;99.90;;;;;;5077165;28;21002;-82
2022/06/19 02:47:37;;;;;;;12.70;2.10;;;21.00;99.90;;;;;;5076861;28;20495;-81
2022/06/19 02:50:06;;;;;;;6.47;2.50;;;20.90;99.90;;;;;;5076431;28;20566;-81
2022/06/19 02:52:33;;;;;;;3.10;2.03;;;20.90;99.90;;;;;;5076869;28;20454;-81
2022/06/19 02:55:00;;;;;;;3.80;2.30;;;20.90;99.90;;;;;;5075992;28;20542;-81
2022/06/19 02:57:27;;;;;;;3.10;1.87;;;20.90;99.90;;;;;;5076215;28;20510;-81
2022/06/19 02:59:54;;;;;;;3.73;2.10;;;20.90;99.90;;;;;;5076948;28;20495;-81
2022/06/19 03:02:21;;;;;;;4.43;2.67;;;20.70;99.90;;;;;;5077188;28;20449;-80
2022/06/19 03:04:54;;;;;;;3.60;2.20;;;20.70;99.90;;;;;;5076617;28;20994;-82
2022/06/19 03:07:21;;;;;;;3.80;1.83;;;20.70;99.90;;;;;;5076452;28;20554;-81
2022/06/19 03:09:48;;;;;;;3.27;1.70;;;20.60;99.90;;;;;;5077006;28;20561;-81
2022/06/19 03:12:14;;;;;;;5.40;1.83;;;20.60;99.90;;;;;;5076659;28;20888;-82
2022/06/19 03:14:41;;;;;;;6.20;2.67;;;20.50;99.90;;;;;;5076688;28;20525;-82
2022/06/19 03:17:11;;;;;;;3.70;1.90;;;20.40;99.90;;;;;;5076537;28;20499;-79
2022/06/19 03:19:38;;;;;;;3.80;1.67;;;20.30;99.90;;;;;;5076377;28;20453;-81
2022/06/19 03:22:06;;;;;;;6.70;2.33;;;20.40;99.90;;;;;;5076046;28;20858;-81
2022/06/19 03:24:33;;;;;;;3.57;1.77;;;20.30;99.90;;;;;;5076659;28;20530;-81
2022/06/19 03:27:00;;;;;;;5.03;2.10;;;20.30;99.90;;;;;;5076935;28;20486;-80
2022/06/19 03:29:27;;;;;;;3.37;2.00;;;20.20;99.90;;;;;;5077009;28;20510;-82
2022/06/19 03:31:53;;;;;;;3.83;1.83;;;20.20;99.90;;;;;;5098034;28;20481;-81
2022/06/19 03:34:20;;;;;;;3.57;1.83;;;20.10;99.90;;;;;;5098641;28;20450;-81
2022/06/19 03:36:47;;;;;;;6.63;2.37;;;20.00;99.90;;;;;;5079177;28;20471;-81
2022/06/19 03:39:15;;;;;;;4.23;1.87;;;20.00;99.90;;;;;;5077045;28;20541;-81
2022/06/19 03:41:42;;;;;;;3.20;1.73;;;20.00;99.90;;;;;;5076510;28;20479;-82
2022/06/19 03:44:09;;;;;;;5.07;1.80;;;19.80;99.90;;;;;;5076909;28;20548;-82
2022/06/19 03:46:36;;;;;;;5.43;2.10;;;19.80;99.90;;;;;;5093031;28;20481;-81
2022/06/19 03:49:04;;;;;;;3.70;1.53;;;19.80;99.90;;;;;;5099575;28;20501;-82
2022/06/19 03:51:31;;;;;;;4.53;1.60;;;19.70;99.90;;;;;;5100722;28;20446;-83
2022/06/19 03:53:58;;;;;;;7.47;3.23;;;19.70;99.90;;;;;;5107686;28;20455;-82
2022/06/19 03:56:29;;;;;;;6.30;1.60;;;19.60;99.90;;;;;;5102947;28;20461;-83
2022/06/19 03:58:56;;;;;;;4.43;2.10;;;19.60;99.90;;;;;;5102875;28;20433;-83
2022/06/19 04:01:25;;;;;;;7.73;2.40;;;19.40;99.90;;;;;;5104997;28;20465;-82
2022/06/19 04:03:54;;;;;;;5.57;2.00;;;19.40;99.90;;;;;;5106383;28;20477;-81
2022/06/19 04:06:25;;;;;;;5.70;1.97;;;19.30;99.90;;;;;;5087744;28;20447;-82
2022/06/19 04:08:52;;;;;;;5.40;1.60;;;19.30;99.90;;;;;;5086546;28;20451;-83
2022/06/19 04:11:21;;;;;;;6.77;1.63;;;19.20;99.90;;;;;;5114863;28;20454;-82
2022/06/19 04:13:52;;;;;;;5.67;2.03;;;19.30;99.90;;;;;;5105526;28;20476;-83
2022/06/19 04:16:21;;;;;;;11.57;2.67;;;19.00;99.90;;;;;;5085448;28;20830;-80
2022/06/19 04:18:48;;;;;;;6.73;2.40;;;19.00;99.90;;;;;;5083342;28;20603;-82
2022/06/19 04:21:17;;;;;;;6.37;2.40;;;19.00;99.90;;;;;;5082672;28;20454;-82
2022/06/19 04:23:45;;;;;;;5.63;1.90;;;18.80;99.90;;;;;;5083101;28;20481;-82
2022/06/19 04:26:16;;;;;;;7.23;1.93;;;18.80;99.90;;;;;;5099850;28;20464;-83
2022/06/19 04:28:44;;;;;;;8.60;2.20;;;18.80;99.90;;;;;;5101508;28;20505;-83
2022/06/19 04:31:12;;;;;;;8.80;2.60;;;18.80;99.90;;;;;;5089648;28;20454;-82
2022/06/19 04:33:40;;;;;;;7.43;2.30;;;18.70;99.90;;;;;;5080645;28;20469;-83
2022/06/19 04:36:09;;;;;;;10.70;2.73;;;18.70;99.90;;;;;;5082326;28;20449;-83
2022/06/19 04:38:36;;;;;;;8.80;2.00;;;18.70;99.90;;;;;;5081726;28;20496;-83
2022/06/19 04:41:03;;;;;;;6.70;2.20;;;18.60;99.90;;;;;;5092598;28;20453;-82
2022/06/19 04:43:30;;;;;;;7.53;2.00;;;18.60;99.90;;;;;;5099015;28;20487;-82
2022/06/19 04:46:03;;;;;;;6.77;2.37;;;18.50;99.90;;;;;;5098896;28;20937;-82
2022/06/19 04:48:32;;;;;;;7.40;2.43;;;18.50;99.90;;;;;;5099328;28;20484;-82
2022/06/19 04:50:59;;;;;;;7.80;2.43;;;18.60;99.90;;;;;;5085526;28;20485;-81
2022/06/19 04:53:26;;;;;;;9.27;2.30;;;18.60;99.90;;;;;;5079731;28;20484;-81
2022/06/19 04:55:53;;;;;;;14.13;2.03;;;18.60;99.90;;;;;;5079652;28;20736;-82
2022/06/19 04:58:22;;;;;;;9.70;2.20;;;18.50;99.90;;;;;;5096468;28;20460;-84
2022/06/19 05:00:49;;;;;;;11.10;2.13;;;18.50;99.90;;;;;;5109378;28;20457;-83
2022/06/19 05:03:16;;;;;;;4.53;1.73;;;18.40;99.90;;;;;;5088443;28;20463;-82
2022/06/19 05:05:45;;;;;;;10.63;2.10;;;18.20;99.90;;;;;;5083011;28;20461;-83
2022/06/19 05:08:12;;;;;;;9.30;2.07;;;18.20;99.90;;;;;;5089376;28;20498;-82
2022/06/19 05:10:41;;;;;;;7.07;2.00;;;18.30;99.90;;;;;;5101287;28;20519;-82
2022/06/19 05:13:12;;;;;;;10.03;2.43;;;18.20;99.90;;;;;;5094696;28;20459;-82
2022/06/19 05:15:39;;;;;;;6.40;1.97;;;18.10;99.90;;;;;;5082254;28;20488;-81
2022/06/19 05:18:07;;;;;;;8.00;2.47;;;18.20;99.90;;;;;;5087573;28;20483;-82
2022/06/19 05:20:34;;;;;;;11.37;1.80;;;18.30;99.90;;;;;;5102488;28;20454;-82
2022/06/19 05:23:02;;;;;;;14.60;2.83;;;18.30;99.90;;;;;;5101912;28;20513;-82
2022/06/19 05:25:29;;;;;;;8.20;2.47;;;18.40;99.90;;;;;;5103721;28;20459;-82
2022/06/19 05:27:55;;;;;;;11.60;2.27;;;18.30;99.90;;;;;;5103165;28;20876;-80
2022/06/19 05:30:23;;;;;;;14.43;2.47;;;18.20;99.90;;;;;;5100569;28;20587;-82
2022/06/19 05:32:50;;;;;;;11.30;2.40;;;18.40;99.90;;;;;;5097074;28;20588;-82
2022/06/19 05:35:17;;;;;;;8.47;2.70;;;18.30;99.90;;;;;;5079461;28;20489;-81
2022/06/19 05:37:44;;;;;;;8.10;2.30;;;18.30;99.90;;;;;;5079254;28;20454;-82
2022/06/19 05:40:13;;;;;;;11.80;2.17;;;18.40;99.90;;;;;;5079023;28;20481;-83
2022/06/19 05:42:40;;;;;;;7.07;1.77;;;18.50;99.90;;;;;;5079214;28;20452;-81
2022/06/19 05:45:08;;;;;;;5.37;1.90;;;18.60;99.90;;;;;;5079238;28;20455;-82
2022/06/19 05:47:35;;;;;;;7.30;1.77;;;18.70;99.90;;;;;;5080629;28;20505;-80
2022/06/19 05:50:02;;;;;;;13.17;2.97;;;18.80;99.90;;;;;;5103187;28;20516;-81
2022/06/19 05:52:28;;;;;;;12.73;2.33;;;18.90;99.90;;;;;;5110673;28;20449;-81
2022/06/19 05:54:55;;;;;;;12.60;2.30;;;18.90;99.90;;;;;;5091921;28;20439;-81
2022/06/19 05:57:24;;;;;;;7.43;1.80;;;19.00;99.90;;;;;;5096984;28;20545;-84
2022/06/19 05:59:50;;;;;;;5.83;1.60;;;19.50;99.90;;;;;;5101592;28;20456;-82
2022/06/19 06:02:21;;;;;;;6.27;1.83;;;19.50;99.90;;;;;;5102440;28;20867;-84
2022/06/19 06:04:48;;;;;;;8.80;2.30;;;19.70;99.90;;;;;;5103328;22;20456;-79
2022/06/19 06:07:15;;;;;;;8.07;2.33;;;19.90;99.90;;;;;;5095151;28;20488;-79
2022/06/19 06:09:42;;;;;;;7.03;2.20;;;20.00;99.90;;;;;;5100194;28;20558;-77
2022/06/19 06:12:09;;;;;;;10.77;2.10;;;20.10;99.90;;;;;;5090819;28;20477;-78
2022/06/19 06:14:38;;;;;;;11.60;3.03;;;20.20;99.90;;;;;;5093203;28;20995;-78
2022/06/19 06:17:05;;;;;;;6.30;1.47;;;20.10;99.90;;;;;;5100572;28;20439;-79
2022/06/19 06:19:34;;;;;;;11.27;2.40;;;20.10;99.90;;;;;;5106279;28;20481;-78
2022/06/19 06:22:02;;;;;;;7.80;2.27;;;19.90;99.90;;;;;;5099685;28;20453;-79
2022/06/19 06:24:29;;;;;;;9.53;2.33;;;19.70;99.90;;;;;;5097217;28;20454;-79
2022/06/19 06:26:57;;;;;;;9.93;2.60;;;19.50;99.90;;;;;;5104069;28;20458;-78
2022/06/19 06:29:24;;;;;;;8.20;2.40;;;19.40;99.90;;;;;;5087804;28;20453;-78
2022/06/19 06:31:58;;;;;;;8.20;2.27;;;19.40;99.90;;;;;;5091626;28;20459;-78
2022/06/19 06:34:26;;;;;;;10.73;2.17;;;19.50;99.90;;;;;;5087246;28;20439;-79
2022/06/19 06:36:55;;;;;;;7.63;1.83;;;19.60;99.90;;;;;;5086855;28;20451;-79
2022/06/19 06:39:22;;;;;;;13.23;3.33;;;19.60;99.90;;;;;;5076788;28;20470;-79
2022/06/19 06:41:52;;;;;;;12.63;2.57;;;19.80;99.90;;;;;;5078984;28;20468;-80
2022/06/19 06:44:19;;;;;;;9.03;2.37;;;19.60;99.90;;;;;;5078721;28;20477;-79
2022/06/19 06:46:45;;;;;;;7.90;2.03;;;19.70;99.90;;;;;;5081258;28;20517;-79
2022/06/19 06:49:14;;;;;;;10.17;2.20;;;19.70;99.90;;;;;;5083017;28;20474;-79
2022/06/19 06:51:40;;;;;;;9.00;2.10;;;19.90;99.90;;;;;;5083546;28;20520;-79
2022/06/19 06:54:07;;;;;;;8.63;2.37;;;19.80;99.90;;;;;;5081292;28;20481;-78
2022/06/19 06:56:36;;;;;;;9.87;2.53;;;19.90;99.90;;;;;;5081437;28;20482;-79
2022/06/19 06:59:04;;;;;;;6.63;1.90;;;19.90;99.90;;;;;;5082789;28;20439;-79
2022/06/19 07:01:32;;;;;;;10.60;2.00;;;20.10;99.90;;;;;;5083700;28;20515;-79
2022/06/19 07:03:59;;;;;;;8.20;1.77;;;20.20;99.90;;;;;;5084203;28;20458;-78
2022/06/19 07:06:29;;;;;;;9.20;2.43;;;20.30;99.90;;;;;;5079376;28;20489;-77
2022/06/19 07:08:56;;;;;;;8.00;1.83;;;20.30;99.90;;;;;;5072671;28;20899;-78
2022/06/19 07:11:25;;;;;;;8.40;2.93;;;20.40;99.90;;;;;;5078612;28;20506;-77
2022/06/19 07:13:52;;;;;;;10.40;2.50;;;20.60;99.90;;;;;;5078834;28;21082;-77
2022/06/19 07:16:19;;;;;;;8.17;2.13;;;20.70;99.90;;;;;;5086420;28;20574;-78
2022/06/19 07:18:46;;;;;;;9.13;2.67;;;20.50;99.90;;;;;;5075918;28;20451;-78
2022/06/19 07:21:13;;;;;;;10.90;2.93;;;20.70;99.90;;;;;;5076346;28;20444;-79
2022/06/19 07:23:41;;;;;;;10.10;2.63;;;20.90;99.90;;;;;;5077149;28;20848;-79
2022/06/19 07:26:12;;;;;;;6.23;2.23;;;21.00;99.90;;;;;;5080520;28;20490;-78
2022/06/19 07:28:40;;;;;;;8.87;2.50;;;21.10;99.90;;;;;;5081059;28;20538;-78
2022/06/19 07:31:07;;;;;;;11.37;2.50;;;21.10;99.90;;;;;;5082066;28;20526;-78
2022/06/19 07:33:34;;;;;;;7.00;2.33;;;21.10;99.90;;;;;;5074179;28;20489;-78
2022/06/19 07:36:01;;;;;;;10.23;3.00;;;21.20;99.90;;;;;;5083983;28;20471;-79
2022/06/19 07:38:28;;;;;;;8.70;2.43;;;21.50;99.90;;;;;;5085975;28;20523;-78
2022/06/19 07:40:56;;;;;;;12.60;2.50;;;21.70;99.90;;;;;;5084991;28;20912;-79
2022/06/19 07:43:24;;;;;;;8.70;2.73;;;21.80;99.90;;;;;;5095774;28;20446;-78
2022/06/19 07:45:52;;;;;;;8.17;2.33;;;21.90;99.90;;;;;;5086752;28;20498;-78
2022/06/19 07:51:10;;;;;;;8.10;2.87;;;21.90;99.90;;;;;;5089104;28;20496;-83
2022/06/19 07:53:36;;;;;;;7.70;2.20;;;21.90;99.90;;;;;;5093045;28;20450;-80
2022/06/19 07:56:05;;;;;;;12.03;2.80;;;22.00;99.90;;;;;;5085066;28;20482;-79
2022/06/19 07:58:34;;;;;;;11.07;2.70;;;22.00;99.90;;;;;;5099795;28;20485;-78
2022/06/19 08:01:00;;;;;;;18.10;2.80;;;22.10;99.90;;;;;;5089768;28;20451;-78
2022/06/19 08:03:27;;;;;;;10.17;2.10;;;22.20;99.90;;;;;;5095757;28;20821;-79
2022/06/19 08:05:54;;;;;;;10.23;2.40;;;22.50;99.90;;;;;;5084142;28;20474;-78
2022/06/19 08:08:24;;;;;;;7.57;2.00;;;22.60;99.90;;;;;;5088320;28;20481;-78
2022/06/19 08:10:53;;;;;;;14.27;2.70;;;22.60;99.90;;;;;;5089193;28;20503;-79
2022/06/19 08:13:33;;;;;;;12.53;2.53;;;22.50;99.90;;;;;;5087664;28;20453;-80
2022/06/19 08:16:03;;;;;;;10.47;3.00;;;22.40;99.90;;;;;;5089372;28;20463;-79
2022/06/19 08:18:31;;;;;;;8.73;2.67;;;22.50;99.90;;;;;;5087732;28;20447;-80
2022/06/19 08:20:58;;;;;;;13.43;3.50;;;22.60;99.90;;;;;;5087329;28;20470;-79
2022/06/19 08:23:24;;;;;;;7.73;3.43;;;22.70;99.90;;;;;;5085628;28;20502;-80
2022/06/19 08:26:06;;;;;;;11.70;3.00;;;22.60;99.90;;;;;;5084806;28;20467;-80
2022/06/19 08:28:38;;;;;;;7.93;3.37;;;22.60;99.90;;;;;;5081943;28;20842;-80
2022/06/19 08:31:06;;;;;;;11.97;3.33;;;22.60;99.90;;;;;;5081705;28;20494;-81
2022/06/19 08:33:33;;;;;;;8.63;2.70;;;22.50;99.90;;;;;;5070921;28;20447;-80
2022/06/19 08:36:05;;;;;;;8.70;2.83;;;22.70;99.90;;;;;;5058519;28;20503;-80
2022/06/19 08:38:34;;;;;;;6.37;2.30;;;23.10;99.90;;;;;;5065591;28;20444;-81
2022/06/19 08:41:25;;;;;;;10.60;3.23;;;23.40;99.90;;;;;;5081039;28;20499;-81
2022/06/19 08:44:19;;;;;;;6.10;2.70;;;23.70;99.90;;;;;;5079789;28;20955;-80
2022/06/19 08:46:58;;;;;;;11.23;3.07;;;23.90;99.90;;;;;;5084740;28;20498;-80
2022/06/19 08:49:41;;;;;;;8.47;2.80;;;24.20;99.90;;;;;;5084679;28;20447;-79
2022/06/19 08:52:20;;;;;;;8.60;3.30;;;24.30;99.90;;;;;;5085496;28;20518;-80
2022/06/19 08:54:56;;;;;;;11.60;3.40;;;24.40;99.90;;;;;;5084961;28;20474;-81
2022/06/19 08:57:32;;;;;;;10.60;2.37;;;24.60;99.90;;;;;;5085063;28;20482;-79
2022/06/19 09:00:07;;;;;;;9.23;3.17;;;24.70;99.90;;;;;;5079172;28;20542;-79
2022/06/19 09:02:50;;;;;;;8.67;2.70;;;24.70;99.90;;;;;;5083418;28;20450;-79
2022/06/19 09:05:38;;;;;;;9.27;2.07;;;24.70;99.90;;;;;;5068822;28;20514;-79
2022/06/19 09:08:50;;;;;;;11.13;3.30;;;24.60;99.90;;;;;;5083807;28;20477;-81
2022/06/19 09:11:27;;;;;;;9.50;3.10;;;24.50;99.90;;;;;;5066842;28;20486;-81
2022/06/19 09:14:05;;;;;;;8.60;2.93;;;24.70;99.90;;;;;;5081311;28;20455;-81
2022/06/19 09:16:40;;;;;;;9.40;3.00;;;25.00;99.90;;;;;;5076071;28;20497;-81
2022/06/19 09:19:14;;;;;;;8.10;2.77;;;25.20;99.90;;;;;;5080587;28;20446;-82
2022/06/19 09:22:05;;;;;;;9.20;2.90;;;25.10;99.90;;;;;;5084213;28;20504;-81
2022/06/19 09:24:49;;;;;;;8.63;2.43;;;25.10;99.90;;;;;;5070168;28;20447;-80
2022/06/19 09:27:19;;;;;;;10.60;2.67;;;25.20;99.90;;;;;;5084229;28;20447;-81
2022/06/19 09:29:50;;;;;;;5.57;2.07;;;25.30;99.90;;;;;;5083142;28;20500;-80
2022/06/19 09:32:26;;;;;;;9.30;2.17;;;25.30;99.90;;;;;;5074769;28;20515;-79
2022/06/19 09:34:58;;;;;;;9.17;2.40;;;25.50;99.90;;;;;;5086926;28;20770;-81
2022/06/19 09:37:31;;;;;;;6.93;2.03;;;25.50;99.90;;;;;;5090313;28;20969;-81
2022/06/19 09:40:03;;;;;;;8.27;2.47;;;25.20;99.90;;;;;;5093082;28;20438;-81
2022/06/19 09:42:34;;;;;;;11.80;3.07;;;25.10;99.90;;;;;;5094657;28;20441;-79
2022/06/19 09:45:06;;;;;;;6.53;2.60;;;25.00;99.90;;;;;;5090826;28;20985;-80
2022/06/19 09:47:40;;;;;;;7.00;2.20;;;24.90;99.90;;;;;;5093117;28;20434;-80
2022/06/19 09:50:14;;;;;;;10.47;2.60;;;24.90;99.90;;;;;;5096236;28;20430;-82
2022/06/19 09:52:46;;;;;;;9.53;2.77;;;25.20;99.90;;;;;;5097230;28;21154;-81
2022/06/19 09:55:19;;;;;;;9.70;2.50;;;25.20;99.90;;;;;;5094715;28;20494;-81
2022/06/19 09:57:52;;;;;;;6.63;2.07;;;25.10;99.90;;;;;;5097211;28;20435;-81
2022/06/19 10:00:29;;;;;;;7.90;2.47;;;25.00;99.90;;;;;;5094483;28;20451;-81
2022/06/19 10:03:02;;;;;;;7.90;2.10;;;24.80;99.90;;;;;;5089663;28;20466;-81
2022/06/19 10:05:33;;;;;;;8.33;2.20;;;24.40;99.90;;;;;;5090376;28;20479;-80
2022/06/19 10:08:06;;;;;;;7.73;2.40;;;24.20;99.90;;;;;;5070790;28;20786;-80
2022/06/19 10:10:40;;;;;;;9.17;2.40;;;23.90;99.90;;;;;;5069677;28;20448;-81
2022/06/19 10:13:14;;;;;;;8.63;2.30;;;23.80;99.90;;;;;;5069103;28;20452;-80
2022/06/19 10:15:43;;;;;;;8.73;1.90;;;23.80;99.90;;;;;;5070082;28;20995;-80
2022/06/19 10:18:17;;;;;;;8.40;2.13;;;23.60;99.90;;;;;;5069844;28;20451;-80
2022/06/19 10:20:52;;;;;;;10.17;2.77;;;23.60;99.90;;;;;;5070441;28;20467;-81
2022/06/19 10:23:28;;;;;;;8.10;2.80;;;23.30;99.90;;;;;;5069158;28;20475;-80
2022/06/19 10:26:12;;;;;;;13.40;2.57;;;23.50;99.90;;;;;;5069973;28;20559;-80
2022/06/19 10:29:02;;;;;;;7.80;2.73;;;23.70;99.90;;;;;;5069365;28;20451;-79
2022/06/19 10:31:45;;;;;;;9.47;2.90;;;23.70;99.90;;;;;;5068945;28;20844;-80
2022/06/19 10:34:23;;;;;;;6.30;2.10;;;23.80;99.90;;;;;;5069707;28;21130;-81
2022/06/19 10:37:01;;;;;;;11.43;3.30;;;23.80;99.90;;;;;;5069043;28;20488;-81
2022/06/19 10:39:47;;;;;;;10.67;3.20;;;23.60;99.90;;;;;;5068603;28;20566;-80
2022/06/19 10:42:25;;;;;;;9.20;3.67;;;23.40;99.90;;;;;;5070408;28;20458;-79
2022/06/19 10:45:08;;;;;;;10.63;2.60;;;23.40;99.90;;;;;;5078663;28;20493;-80
2022/06/19 10:47:54;;;;;;;7.50;2.53;;;23.40;99.90;;;;;;5090181;28;20590;-79
2022/06/19 10:50:35;;;;;;;7.70;2.20;;;23.30;99.90;;;;;;5089744;28;20446;-80
2022/06/19 10:53:22;;;;;;;8.33;2.20;;;23.50;99.90;;;;;;5090022;28;20483;-81
2022/06/19 10:55:54;;;;;;;10.27;3.40;;;23.60;99.90;;;;;;5090330;28;20490;-82
2022/06/19 10:58:25;;;;;;;9.00;2.30;;;23.70;99.90;;;;;;5090726;28;20606;-82
2022/06/19 11:00:53;;;;;;;8.03;2.93;;;24.00;99.90;;;;;;5092337;28;20447;-79
2022/06/19 11:06:21;;;;;;;8.40;2.90;;;25.30;99.90;;;;;;5088430;28;20490;-80
2022/06/19 11:08:54;;;;;;;9.37;2.93;;;25.60;99.90;;;;;;5088611;28;20442;-81
2022/06/19 11:11:23;;;;;;;11.03;2.30;;;25.70;99.90;;;;;;5087714;28;20486;-81
2022/06/19 11:14:06;;;;;;;9.77;2.60;;;25.90;99.90;;;;;;5088137;28;20466;-79
2022/06/19 11:16:51;;;;;;;9.07;2.33;;;25.90;99.90;;;;;;5088522;28;20486;-80
2022/06/19 11:19:32;;;;;;;9.50;2.43;;;25.70;99.90;;;;;;5088557;28;20944;-81
2022/06/19 11:22:01;;;;;;;9.87;2.70;;;25.80;99.90;;;;;;5088749;28;20439;-79
2022/06/19 11:24:32;;;;;;;9.37;2.53;;;25.90;99.90;;;;;;5088200;28;20447;-80
2022/06/19 11:27:00;;;;;;;8.90;2.63;;;25.70;99.90;;;;;;5088818;28;20458;-80
2022/06/19 11:29:28;;;;;;;10.03;2.50;;;25.90;99.90;;;;;;5088576;28;20443;-79
2022/06/19 11:32:06;;;;;;;7.67;2.70;;;26.20;99.90;;;;;;5089910;28;20486;-80
2022/06/19 11:37:21;;;;;;;9.07;2.77;;;26.40;99.90;;;;;;5085718;28;20434;-81
2022/06/19 11:39:51;;;;;;;7.63;2.10;;;26.70;99.90;;;;;;5088824;28;20945;-80
2022/06/19 11:42:31;;;;;;;5.63;1.90;;;27.10;99.90;;;;;;5089070;28;20458;-83
2022/06/19 11:45:01;;;;;;;9.90;2.80;;;27.50;99.90;;;;;;5072127;28;20495;-79
2022/06/19 11:47:36;;;;;;;7.43;2.60;;;27.20;99.90;;;;;;5066559;28;20451;-79
2022/06/19 11:50:20;;;;;;;9.60;2.97;;;27.00;99.90;;;;;;5064533;28;20948;-79
2022/06/19 11:52:52;;;;;;;4.63;2.00;;;26.60;99.90;;;;;;5064844;28;20521;-79
2022/06/19 11:55:28;;;;;;;9.03;2.77;;;26.70;99.90;;;;;;5064034;28;21019;-79
2022/06/19 11:57:58;;;;;;;8.90;2.30;;;26.80;99.90;;;;;;5064422;28;20455;-80
2022/06/19 12:00:29;;;;;;;9.30;2.80;;;27.00;99.90;;;;;;5067354;28;20463;-80
2022/06/19 12:02:59;;;;;;;15.63;3.20;;;27.00;99.90;;;;;;5065711;28;20455;-79
2022/06/19 12:05:29;;;;;;;8.77;2.97;;;27.40;99.90;;;;;;5075869;22;20439;-77
2022/06/19 12:08:06;;;;;;;6.90;2.10;;;27.60;99.90;;;;;;5054850;28;20237;-78
2022/06/19 12:10:37;;;;;;;7.50;2.00;;;27.90;99.90;;;;;;5057097;28;20452;-79
2022/06/19 12:13:07;;;;;;;7.47;2.70;;;27.80;99.90;;;;;;5055890;28;20522;-80
2022/06/19 12:15:36;;;;;;;8.03;3.00;;;27.60;99.90;;;;;;5058363;28;20487;-83
2022/06/19 12:18:14;;;;;;;7.40;2.77;;;27.70;99.90;;;;;;5048382;28;20469;-80
2022/06/19 12:20:41;;;;;;;9.33;2.87;;;28.10;99.90;;;;;;5052339;28;20956;-81
2022/06/19 12:23:13;;;;;;;7.50;2.70;;;28.50;99.90;;;;;;5053548;28;20441;-79
2022/06/19 12:25:47;;;;;;;5.30;2.17;;;28.50;99.90;;;;;;5039569;28;20500;-81
2022/06/19 12:28:23;;;;;;;8.47;2.30;;;28.70;99.90;;;;;;5037118;28;20487;-80
2022/06/19 12:30:54;;;;;;;6.77;2.63;;;28.30;99.90;;;;;;5035773;28;20492;-79
2022/06/19 12:33:26;;;;;;;10.40;3.43;;;28.60;99.90;;;;;;5035731;28;20487;-79
2022/06/19 12:35:53;;;;;;;10.10;2.77;;;28.80;99.90;;;;;;5055753;28;20467;-81
2022/06/19 12:38:23;;;;;;;14.03;3.17;;;29.00;99.90;;;;;;5057457;28;20539;-79
2022/06/19 12:41:12;;;;;;;9.50;3.37;;;28.90;99.90;;;;;;5037660;28;20472;-79
2022/06/19 12:43:48;;;;;;;9.10;2.37;;;29.20;99.90;;;;;;5047278;28;20458;-79
2022/06/19 12:46:29;;;;;;;6.50;2.27;;;29.60;99.90;;;;;;5053110;28;20503;-80
2022/06/19 12:49:08;;;;;;;10.20;3.20;;;29.90;99.90;;;;;;5034241;28;20540;-80
2022/06/19 12:51:44;;;;;;;5.90;2.30;;;30.00;99.90;;;;;;5038481;28;20575;-80
2022/06/19 12:54:53;;;;;;;7.93;2.80;;;30.10;99.90;;;;;;5059290;28;20535;-80
2022/06/19 12:57:34;;;;;;;7.20;2.50;;;30.50;99.90;;;;;;4976976;28;20546;-80
2022/06/19 13:00:16;;;;;;;9.47;2.90;;;30.70;99.90;;;;;;5038148;28;20473;-80
2022/06/19 13:03:23;;;;;;;5.80;2.17;;;31.20;99.90;;;;;;5038592;28;20499;-79
2022/06/19 13:06:03;;;;;;;8.77;2.23;;;31.40;99.90;;;;;;5026854;28;20479;-79
2022/06/19 13:08:40;;;;;;;6.10;2.57;;;31.40;99.90;;;;;;5035958;28;20453;-81
2022/06/19 13:11:19;;;;;;;7.10;2.63;;;31.30;99.90;;;;;;5041812;28;20535;-80
2022/06/19 13:14:01;;;;;;;8.13;2.47;;;30.80;99.90;;;;;;5056385;28;20480;-78
2022/06/19 13:16:37;;;;;;;7.17;2.57;;;30.60;99.90;;;;;;5039981;28;20469;-79